sensor_id;sensor_type;location;lat;lon;timestamp;temperature;humidity
4453;DHT22;2239;48.152;11.584;2022-09-09T00:07:19;16.80;99.90
4453;DHT22;2239;48.152;11.584;2022-09-09T00:09:49;16.70;99.90
4453;DHT22;2239;48.152;11.584;2022-09-09T00:15:35;16.90;99.90
4453;DHT22;2239;48.152;11.584;2022-09-09T00:18:14;16.90;99.90
4453;DHT22;2239;48.152;11.584;2022-09-09T00:21:05;16.90;99.90
4453;DHT22;2239;48.152;11.584;2022-09-09T00:23:38;16.90;99.90
4453;DHT22;2239;48.152;11.584;2022-09-09T00:28:52;17.00;99.90
4453;DHT22;2239;48.152;11.584;2022-09-09T00:31:27;17.00;99.90
4453;DHT22;2239;48.152;11.584;2022-09-09T00:33:55;17.00;99.90
4453;DHT22;2239;48.152;11.584;2022-09-09T00:36:25;17.00;99.90
4453;DHT22;2239;48.152;11.584;2022-09-09T00:38:59;17.10;99.90
4453;DHT22;2239;48.152;11.584;2022-09-09T00:41:38;17.00;99.90
4453;DHT22;2239;48.152;11.584;2022-09-09T00:44:30;17.00;99.90
4453;DHT22;2239;48.152;11.584;2022-09-09T00:52:39;17.10;99.90
4453;DHT22;2239;48.152;11.584;2022-09-09T00:55:48;17.10;99.90
4453;DHT22;2239;48.152;11.584;2022-09-09T00:58:14;17.20;99.90
4453;DHT22;2239;48.152;11.584;2022-09-09T01:00:52;17.10;99.90
4453;DHT22;2239;48.152;11.584;2022-09-09T01:03:53;17.00;99.90
4453;DHT22;2239;48.152;11.584;2022-09-09T01:12:03;16.70;99.90
4453;DHT22;2239;48.152;11.584;2022-09-09T01:22:34;16.60;99.90
4453;DHT22;2239;48.152;11.584;2022-09-09T01:27:38;16.70;99.90
4453;DHT22;2239;48.152;11.584;2022-09-09T01:30:11;16.60;99.90
4453;DHT22;2239;48.152;11.584;2022-09-09T01:32:49;16.60;99.90
4453;DHT22;2239;48.152;11.584;2022-09-09T01:35:37;16.60;99.90
4453;DHT22;2239;48.152;11.584;2022-09-09T01:38:05;16.60;99.90
4453;DHT22;2239;48.152;11.584;2022-09-09T01:40:31;16.60;99.90
4453;DHT22;2239;48.152;11.584;2022-09-09T01:42:57;16.60;99.90
4453;DHT22;2239;48.152;11.584;2022-09-09T01:45:24;16.60;99.90
4453;DHT22;2239;48.152;11.584;2022-09-09T01:47:51;16.60;99.90
4453;DHT22;2239;48.152;11.584;2022-09-09T01:50:17;16.60;99.90
4453;DHT22;2239;48.152;11.584;2022-09-09T01:52:46;16.60;99.90
4453;DHT22;2239;48.152;11.584;2022-09-09T01:55:12;16.60;99.90
4453;DHT22;2239;48.152;11.584;2022-09-09T02:03:28;16.40;99.90
4453;DHT22;2239;48.152;11.584;2022-09-09T02:06:11;16.40;99.90
4453;DHT22;2239;48.152;11.584;2022-09-09T02:08:43;16.40;99.90
4453;DHT22;2239;48.152;11.584;2022-09-09T02:11:18;16.40;99.90
4453;DHT22;2239;48.152;11.584;2022-09-09T02:13:46;16.40;99.90
4453;DHT22;2239;48.152;11.584;2022-09-09T02:19:09;16.50;99.90
4453;DHT22;2239;48.152;11.584;2022-09-09T02:21:41;16.40;99.90
4453;DHT22;2239;48.152;11.584;2022-09-09T02:24:08;16.30;99.90
4453;DHT22;2239;48.152;11.584;2022-09-09T02:26:40;16.20;99.90
4453;DHT22;2239;48.152;11.584;2022-09-09T02:29:12;16.10;99.90
4453;DHT22;2239;48.152;11.584;2022-09-09T02:31:39;16.10;99.90
4453;DHT22;2239;48.152;11.584;2022-09-09T02:34:09;16.10;99.90
4453;DHT22;2239;48.152;11.584;2022-09-09T02:36:37;16.10;99.90
4453;DHT22;2239;48.152;11.584;2022-09-09T02:39:06;16.10;99.90
4453;DHT22;2239;48.152;11.584;2022-09-09T02:41:35;16.10;99.90
4453;DHT22;2239;48.152;11.584;2022-09-09T02:44:01;16.20;99.90
4453;DHT22;2239;48.152;11.584;2022-09-09T02:46:37;16.30;99.90
4453;DHT22;2239;48.152;11.584;2022-09-09T02:52:11;16.20;99.90
4453;DHT22;2239;48.152;11.584;2022-09-09T02:54:41;16.20;99.90
4453;DHT22;2239;48.152;11.584;2022-09-09T02:57:21;16.20;99.90
4453;DHT22;2239;48.152;11.584;2022-09-09T02:59:49;16.10;99.90
4453;DHT22;2239;48.152;11.584;2022-09-09T03:02:17;16.10;99.90
4453;DHT22;2239;48.152;11.584;2022-09-09T03:04:44;16.10;99.90
4453;DHT22;2239;48.152;11.584;2022-09-09T03:07:11;16.00;99.90
4453;DHT22;2239;48.152;11.584;2022-09-09T03:09:37;15.90;99.90
4453;DHT22;2239;48.152;11.584;2022-09-09T03:12:03;15.90;99.90
4453;DHT22;2239;48.152;11.584;2022-09-09T03:14:32;15.90;99.90
4453;DHT22;2239;48.152;11.584;2022-09-09T03:16:57;15.80;99.90
4453;DHT22;2239;48.152;11.584;2022-09-09T03:19:26;15.80;99.90
4453;DHT22;2239;48.152;11.584;2022-09-09T03:21:53;15.80;99.90
4453;DHT22;2239;48.152;11.584;2022-09-09T03:24:19;15.80;99.90
4453;DHT22;2239;48.152;11.584;2022-09-09T03:26:45;15.80;99.90
4453;DHT22;2239;48.152;11.584;2022-09-09T03:29:11;15.80;99.90
4453;DHT22;2239;48.152;11.584;2022-09-09T03:31:38;15.80;99.90
4453;DHT22;2239;48.152;11.584;2022-09-09T03:34:04;15.80;99.90
4453;DHT22;2239;48.152;11.584;2022-09-09T03:36:30;15.80;99.90
4453;DHT22;2239;48.152;11.584;2022-09-09T03:38:55;15.70;99.90
4453;DHT22;2239;48.152;11.584;2022-09-09T03:41:22;15.70;99.90
4453;DHT22;2239;48.152;11.584;2022-09-09T03:43:52;15.70;99.90
4453;DHT22;2239;48.152;11.584;2022-09-09T03:46:20;15.80;99.90
4453;DHT22;2239;48.152;11.584;2022-09-09T03:48:46;15.70;99.90
4453;DHT22;2239;48.152;11.584;2022-09-09T03:51:12;15.70;99.90
4453;DHT22;2239;48.152;11.584;2022-09-09T03:53:38;15.80;99.90
4453;DHT22;2239;48.152;11.584;2022-09-09T03:56:04;15.80;99.90
4453;DHT22;2239;48.152;11.584;2022-09-09T03:58:33;15.90;99.90
4453;DHT22;2239;48.152;11.584;2022-09-09T04:01:10;15.90;99.90
4453;DHT22;2239;48.152;11.584;2022-09-09T04:03:38;15.90;99.90
4453;DHT22;2239;48.152;11.584;2022-09-09T04:06:05;15.90;99.90
4453;DHT22;2239;48.152;11.584;2022-09-09T04:08:33;15.90;99.90
4453;DHT22;2239;48.152;11.584;2022-09-09T04:11:00;15.90;99.90
4453;DHT22;2239;48.152;11.584;2022-09-09T04:13:27;15.90;99.90
4453;DHT22;2239;48.152;11.584;2022-09-09T04:15:55;15.90;99.90
4453;DHT22;2239;48.152;11.584;2022-09-09T04:18:22;15.90;99.90
4453;DHT22;2239;48.152;11.584;2022-09-09T04:20:48;15.90;99.90
4453;DHT22;2239;48.152;11.584;2022-09-09T04:23:14;15.90;99.90
4453;DHT22;2239;48.152;11.584;2022-09-09T04:25:51;15.90;99.90
4453;DHT22;2239;48.152;11.584;2022-09-09T04:28:18;15.90;99.90
4453;DHT22;2239;48.152;11.584;2022-09-09T04:30:45;16.00;99.90
4453;DHT22;2239;48.152;11.584;2022-09-09T04:33:11;15.90;99.90
4453;DHT22;2239;48.152;11.584;2022-09-09T04:35:38;15.90;99.90
4453;DHT22;2239;48.152;11.584;2022-09-09T04:38:05;15.90;99.90
4453;DHT22;2239;48.152;11.584;2022-09-09T04:40:32;15.90;99.90
4453;DHT22;2239;48.152;11.584;2022-09-09T04:43:02;15.90;99.90
4453;DHT22;2239;48.152;11.584;2022-09-09T04:45:30;15.90;99.90
4453;DHT22;2239;48.152;11.584;2022-09-09T04:47:56;15.80;99.90
4453;DHT22;2239;48.152;11.584;2022-09-09T04:50:22;15.80;99.90
4453;DHT22;2239;48.152;11.584;2022-09-09T04:52:48;15.80;99.90
4453;DHT22;2239;48.152;11.584;2022-09-09T04:55:14;15.70;99.90
4453;DHT22;2239;48.152;11.584;2022-09-09T04:57:40;15.70;99.90
4453;DHT22;2239;48.152;11.584;2022-09-09T05:00:06;15.70;99.90
4453;DHT22;2239;48.152;11.584;2022-09-09T05:02:32;15.70;99.90
4453;DHT22;2239;48.152;11.584;2022-09-09T05:04:58;15.80;99.90
4453;DHT22;2239;48.152;11.584;2022-09-09T05:07:24;15.80;99.90
4453;DHT22;2239;48.152;11.584;2022-09-09T05:09:51;15.80;99.90
4453;DHT22;2239;48.152;11.584;2022-09-09T05:12:17;15.70;99.90
4453;DHT22;2239;48.152;11.584;2022-09-09T05:14:43;15.70;99.90
4453;DHT22;2239;48.152;11.584;2022-09-09T05:17:09;15.60;99.90
4453;DHT22;2239;48.152;11.584;2022-09-09T05:19:35;15.60;99.90
4453;DHT22;2239;48.152;11.584;2022-09-09T05:22:00;15.60;99.90
4453;DHT22;2239;48.152;11.584;2022-09-09T05:24:26;15.60;99.90
4453;DHT22;2239;48.152;11.584;2022-09-09T05:26:52;15.50;99.90
4453;DHT22;2239;48.152;11.584;2022-09-09T05:29:18;15.50;99.90
4453;DHT22;2239;48.152;11.584;2022-09-09T05:31:47;15.50;99.90
4453;DHT22;2239;48.152;11.584;2022-09-09T05:34:13;15.50;99.90
4453;DHT22;2239;48.152;11.584;2022-09-09T05:36:38;15.50;99.90
4453;DHT22;2239;48.152;11.584;2022-09-09T05:39:04;15.60;99.90
4453;DHT22;2239;48.152;11.584;2022-09-09T05:41:30;15.60;99.90
4453;DHT22;2239;48.152;11.584;2022-09-09T05:43:57;15.60;99.90
4453;DHT22;2239;48.152;11.584;2022-09-09T05:46:24;15.60;99.90
4453;DHT22;2239;48.152;11.584;2022-09-09T05:48:51;15.60;99.90
4453;DHT22;2239;48.152;11.584;2022-09-09T05:51:22;15.60;99.90
4453;DHT22;2239;48.152;11.584;2022-09-09T05:53:49;15.70;99.90
4453;DHT22;2239;48.152;11.584;2022-09-09T05:56:18;15.70;99.90
4453;DHT22;2239;48.152;11.584;2022-09-09T05:58:45;15.80;99.90
4453;DHT22;2239;48.152;11.584;2022-09-09T06:01:17;15.80;99.90
4453;DHT22;2239;48.152;11.584;2022-09-09T06:03:44;15.80;99.90
4453;DHT22;2239;48.152;11.584;2022-09-09T06:06:13;15.90;99.90
4453;DHT22;2239;48.152;11.584;2022-09-09T06:08:41;15.90;99.90
4453;DHT22;2239;48.152;11.584;2022-09-09T06:11:14;16.00;99.90
4453;DHT22;2239;48.152;11.584;2022-09-09T06:13:40;16.00;99.90
4453;DHT22;2239;48.152;11.584;2022-09-09T06:16:11;16.00;99.90
4453;DHT22;2239;48.152;11.584;2022-09-09T06:18:37;16.10;99.90
4453;DHT22;2239;48.152;11.584;2022-09-09T06:21:05;16.10;99.90
4453;DHT22;2239;48.152;11.584;2022-09-09T06:23:32;16.20;99.90
4453;DHT22;2239;48.152;11.584;2022-09-09T06:26:06;16.20;99.90
4453;DHT22;2239;48.152;11.584;2022-09-09T06:28:33;16.20;99.90
4453;DHT22;2239;48.152;11.584;2022-09-09T06:31:00;16.10;99.90
4453;DHT22;2239;48.152;11.584;2022-09-09T06:33:30;16.10;99.90
4453;DHT22;2239;48.152;11.584;2022-09-09T06:35:56;16.10;99.90
4453;DHT22;2239;48.152;11.584;2022-09-09T06:38:22;16.10;99.90
4453;DHT22;2239;48.152;11.584;2022-09-09T06:40:55;16.10;99.90
4453;DHT22;2239;48.152;11.584;2022-09-09T06:43:22;16.10;99.90
4453;DHT22;2239;48.152;11.584;2022-09-09T06:48:20;16.30;99.90
4453;DHT22;2239;48.152;11.584;2022-09-09T06:50:46;16.30;99.90
4453;DHT22;2239;48.152;11.584;2022-09-09T06:53:11;16.30;99.90
4453;DHT22;2239;48.152;11.584;2022-09-09T06:55:37;16.40;99.90
4453;DHT22;2239;48.152;11.584;2022-09-09T06:58:08;16.50;99.90
4453;DHT22;2239;48.152;11.584;2022-09-09T07:00:33;16.60;99.90
4453;DHT22;2239;48.152;11.584;2022-09-09T07:02:59;16.60;99.90
4453;DHT22;2239;48.152;11.584;2022-09-09T07:05:25;16.60;99.90
4453;DHT22;2239;48.152;11.584;2022-09-09T07:07:51;16.70;99.90
4453;DHT22;2239;48.152;11.584;2022-09-09T07:10:17;16.70;99.90
4453;DHT22;2239;48.152;11.584;2022-09-09T07:12:43;16.70;99.90
4453;DHT22;2239;48.152;11.584;2022-09-09T07:15:09;16.70;99.90
4453;DHT22;2239;48.152;11.584;2022-09-09T07:17:35;16.70;99.90
4453;DHT22;2239;48.152;11.584;2022-09-09T07:20:01;16.80;99.90
4453;DHT22;2239;48.152;11.584;2022-09-09T07:22:28;16.80;99.90
4453;DHT22;2239;48.152;11.584;2022-09-09T07:24:53;16.90;99.90
4453;DHT22;2239;48.152;11.584;2022-09-09T07:27:19;16.90;99.90
4453;DHT22;2239;48.152;11.584;2022-09-09T07:29:45;16.90;99.90
4453;DHT22;2239;48.152;11.584;2022-09-09T07:32:11;16.90;99.90
4453;DHT22;2239;48.152;11.584;2022-09-09T07:34:36;16.90;99.90
4453;DHT22;2239;48.152;11.584;2022-09-09T07:37:02;16.90;99.90
4453;DHT22;2239;48.152;11.584;2022-09-09T07:39:28;17.00;99.90
4453;DHT22;2239;48.152;11.584;2022-09-09T07:41:53;17.00;99.90
4453;DHT22;2239;48.152;11.584;2022-09-09T07:44:22;17.10;99.90
4453;DHT22;2239;48.152;11.584;2022-09-09T07:46:48;17.10;99.90
4453;DHT22;2239;48.152;11.584;2022-09-09T07:49:14;17.20;99.90
4453;DHT22;2239;48.152;11.584;2022-09-09T07:51:42;17.30;99.90
4453;DHT22;2239;48.152;11.584;2022-09-09T07:54:11;17.40;99.90
4453;DHT22;2239;48.152;11.584;2022-09-09T07:56:38;17.40;99.90
4453;DHT22;2239;48.152;11.584;2022-09-09T07:59:04;17.50;99.90
4453;DHT22;2239;48.152;11.584;2022-09-09T08:01:34;17.50;99.90
4453;DHT22;2239;48.152;11.584;2022-09-09T08:04:04;17.50;99.90
4453;DHT22;2239;48.152;11.584;2022-09-09T08:06:34;17.50;99.90
4453;DHT22;2239;48.152;11.584;2022-09-09T08:09:00;17.60;99.90
4453;DHT22;2239;48.152;11.584;2022-09-09T08:11:27;17.60;99.90
4453;DHT22;2239;48.152;11.584;2022-09-09T08:13:54;17.70;99.90
4453;DHT22;2239;48.152;11.584;2022-09-09T08:16:23;17.80;99.90
4453;DHT22;2239;48.152;11.584;2022-09-09T08:18:50;17.90;99.90
4453;DHT22;2239;48.152;11.584;2022-09-09T08:21:18;17.90;99.90
4453;DHT22;2239;48.152;11.584;2022-09-09T08:23:45;17.90;99.90
4453;DHT22;2239;48.152;11.584;2022-09-09T08:28:47;18.00;99.90
4453;DHT22;2239;48.152;11.584;2022-09-09T08:31:27;18.00;99.90
4453;DHT22;2239;48.152;11.584;2022-09-09T08:33:54;18.00;99.90
4453;DHT22;2239;48.152;11.584;2022-09-09T08:36:22;18.20;99.90
4453;DHT22;2239;48.152;11.584;2022-09-09T08:38:49;18.20;99.90
4453;DHT22;2239;48.152;11.584;2022-09-09T08:52:27;18.30;99.90
4453;DHT22;2239;48.152;11.584;2022-09-09T08:54:58;18.30;99.90
4453;DHT22;2239;48.152;11.584;2022-09-09T08:57:34;18.30;99.90
4453;DHT22;2239;48.152;11.584;2022-09-09T08:59:59;18.30;99.90
4453;DHT22;2239;48.152;11.584;2022-09-09T09:10:50;18.30;99.90
4453;DHT22;2239;48.152;11.584;2022-09-09T09:13:20;18.30;99.90
4453;DHT22;2239;48.152;11.584;2022-09-09T09:15:52;18.30;99.90
4453;DHT22;2239;48.152;11.584;2022-09-09T09:18:19;18.40;99.90
4453;DHT22;2239;48.152;11.584;2022-09-09T09:23:26;18.50;99.90
4453;DHT22;2239;48.152;11.584;2022-09-09T09:25:58;18.60;99.90
4453;DHT22;2239;48.152;11.584;2022-09-09T09:28:29;18.70;99.90
4453;DHT22;2239;48.152;11.584;2022-09-09T09:31:03;18.70;99.90
4453;DHT22;2239;48.152;11.584;2022-09-09T09:36:11;18.90;99.90
4453;DHT22;2239;48.152;11.584;2022-09-09T09:39:01;18.90;99.90
4453;DHT22;2239;48.152;11.584;2022-09-09T09:41:34;18.70;99.90
4453;DHT22;2239;48.152;11.584;2022-09-09T09:44:02;18.70;99.90
4453;DHT22;2239;48.152;11.584;2022-09-09T09:46:28;18.70;99.90
4453;DHT22;2239;48.152;11.584;2022-09-09T09:49:02;18.80;99.90
4453;DHT22;2239;48.152;11.584;2022-09-09T09:51:30;18.70;99.90
4453;DHT22;2239;48.152;11.584;2022-09-09T09:54:14;18.70;99.90
4453;DHT22;2239;48.152;11.584;2022-09-09T09:56:41;18.70;99.90
4453;DHT22;2239;48.152;11.584;2022-09-09T10:01:52;18.80;99.90
4453;DHT22;2239;48.152;11.584;2022-09-09T10:04:22;18.80;99.90
4453;DHT22;2239;48.152;11.584;2022-09-09T10:06:49;18.70;99.90
4453;DHT22;2239;48.152;11.584;2022-09-09T10:09:28;18.80;99.90
4453;DHT22;2239;48.152;11.584;2022-09-09T10:14:52;18.60;99.90
4453;DHT22;2239;48.152;11.584;2022-09-09T10:17:43;18.40;99.90
4453;DHT22;2239;48.152;11.584;2022-09-09T10:23:37;18.30;99.90
4453;DHT22;2239;48.152;11.584;2022-09-09T10:28:48;18.10;99.90
4453;DHT22;2239;48.152;11.584;2022-09-09T10:31:37;18.10;99.90
4453;DHT22;2239;48.152;11.584;2022-09-09T10:37:41;18.10;99.90
4453;DHT22;2239;48.152;11.584;2022-09-09T10:40:26;18.10;99.90
4453;DHT22;2239;48.152;11.584;2022-09-09T10:45:56;18.30;99.90
4453;DHT22;2239;48.152;11.584;2022-09-09T10:48:47;18.40;99.90
4453;DHT22;2239;48.152;11.584;2022-09-09T10:53:52;18.60;99.90
4453;DHT22;2239;48.152;11.584;2022-09-09T10:56:20;18.60;99.90
4453;DHT22;2239;48.152;11.584;2022-09-09T10:59:00;18.50;99.90
4453;DHT22;2239;48.152;11.584;2022-09-09T11:01:33;18.30;99.90
4453;DHT22;2239;48.152;11.584;2022-09-09T11:04:05;18.40;99.90
4453;DHT22;2239;48.152;11.584;2022-09-09T11:06:40;18.50;99.90
4453;DHT22;2239;48.152;11.584;2022-09-09T11:09:15;18.70;99.90
4453;DHT22;2239;48.152;11.584;2022-09-09T11:14:39;18.80;99.90
4453;DHT22;2239;48.152;11.584;2022-09-09T11:17:20;18.90;99.90
4453;DHT22;2239;48.152;11.584;2022-09-09T11:19:47;19.00;99.90
4453;DHT22;2239;48.152;11.584;2022-09-09T11:24:54;19.30;99.90
4453;DHT22;2239;48.152;11.584;2022-09-09T11:36:43;19.70;99.90
4453;DHT22;2239;48.152;11.584;2022-09-09T11:44:37;20.10;99.90
4453;DHT22;2239;48.152;11.584;2022-09-09T11:47:02;20.10;99.90
4453;DHT22;2239;48.152;11.584;2022-09-09T11:52:24;20.20;99.90
4453;DHT22;2239;48.152;11.584;2022-09-09T11:54:54;20.30;99.90
4453;DHT22;2239;48.152;11.584;2022-09-09T11:57:27;20.40;99.90
4453;DHT22;2239;48.152;11.584;2022-09-09T11:59:56;20.40;99.90
4453;DHT22;2239;48.152;11.584;2022-09-09T12:02:27;20.30;99.90
4453;DHT22;2239;48.152;11.584;2022-09-09T12:05:03;20.20;99.90
4453;DHT22;2239;48.152;11.584;2022-09-09T12:07:58;20.00;99.90
4453;DHT22;2239;48.152;11.584;2022-09-09T12:13:22;19.70;99.90
4453;DHT22;2239;48.152;11.584;2022-09-09T12:15:56;19.70;99.90
4453;DHT22;2239;48.152;11.584;2022-09-09T12:24:11;19.80;99.90
4453;DHT22;2239;48.152;11.584;2022-09-09T12:26:54;19.80;99.90
4453;DHT22;2239;48.152;11.584;2022-09-09T12:32:10;19.90;99.90
4453;DHT22;2239;48.152;11.584;2022-09-09T12:34:47;20.00;99.90
4453;DHT22;2239;48.152;11.584;2022-09-09T12:37:52;20.00;99.90
4453;DHT22;2239;48.152;11.584;2022-09-09T12:40:27;20.10;99.90
4453;DHT22;2239;48.152;11.584;2022-09-09T12:42:53;20.10;99.90
4453;DHT22;2239;48.152;11.584;2022-09-09T12:45:25;20.10;99.90
4453;DHT22;2239;48.152;11.584;2022-09-09T12:47:57;20.10;99.90
4453;DHT22;2239;48.152;11.584;2022-09-09T12:50:26;20.10;99.90
4453;DHT22;2239;48.152;11.584;2022-09-09T12:53:07;20.20;99.90
4453;DHT22;2239;48.152;11.584;2022-09-09T12:55:36;20.40;99.90
4453;DHT22;2239;48.152;11.584;2022-09-09T12:58:03;20.60;99.90
4453;DHT22;2239;48.152;11.584;2022-09-09T13:00:32;20.40;99.90
4453;DHT22;2239;48.152;11.584;2022-09-09T13:03:14;20.40;99.90
4453;DHT22;2239;48.152;11.584;2022-09-09T13:05:41;20.40;99.90
4453;DHT22;2239;48.152;11.584;2022-09-09T13:08:12;20.20;99.90
4453;DHT22;2239;48.152;11.584;2022-09-09T13:11:03;20.10;99.90
4453;DHT22;2239;48.152;11.584;2022-09-09T13:13:36;20.10;99.90
4453;DHT22;2239;48.152;11.584;2022-09-09T13:16:04;20.00;99.90
4453;DHT22;2239;48.152;11.584;2022-09-09T13:18:34;20.00;99.90
4453;DHT22;2239;48.152;11.584;2022-09-09T13:21:01;20.10;99.90
4453;DHT22;2239;48.152;11.584;2022-09-09T13:23:29;20.00;99.90
4453;DHT22;2239;48.152;11.584;2022-09-09T13:26:04;20.10;99.90
4453;DHT22;2239;48.152;11.584;2022-09-09T13:28:31;20.10;99.90
4453;DHT22;2239;48.152;11.584;2022-09-09T13:30:59;20.10;99.90
4453;DHT22;2239;48.152;11.584;2022-09-09T13:33:31;20.10;99.90
4453;DHT22;2239;48.152;11.584;2022-09-09T13:35:59;20.10;99.90
4453;DHT22;2239;48.152;11.584;2022-09-09T13:38:29;20.20;99.90
4453;DHT22;2239;48.152;11.584;2022-09-09T13:41:03;20.00;99.90
4453;DHT22;2239;48.152;11.584;2022-09-09T13:43:43;20.00;99.90
4453;DHT22;2239;48.152;11.584;2022-09-09T13:46:35;19.80;99.90
4453;DHT22;2239;48.152;11.584;2022-09-09T13:49:22;20.00;99.90
4453;DHT22;2239;48.152;11.584;2022-09-09T13:51:50;19.90;99.90
4453;DHT22;2239;48.152;11.584;2022-09-09T13:54:18;19.70;99.90
4453;DHT22;2239;48.152;11.584;2022-09-09T13:56:44;19.70;99.90
4453;DHT22;2239;48.152;11.584;2022-09-09T13:59:12;19.50;99.90
4453;DHT22;2239;48.152;11.584;2022-09-09T14:01:39;19.40;99.90
4453;DHT22;2239;48.152;11.584;2022-09-09T14:04:05;19.30;99.90
4453;DHT22;2239;48.152;11.584;2022-09-09T14:06:34;19.20;99.90
4453;DHT22;2239;48.152;11.584;2022-09-09T14:09:04;19.20;99.90
4453;DHT22;2239;48.152;11.584;2022-09-09T14:11:29;19.10;99.90
4453;DHT22;2239;48.152;11.584;2022-09-09T14:13:55;19.00;99.90
4453;DHT22;2239;48.152;11.584;2022-09-09T14:16:21;19.00;99.90
4453;DHT22;2239;48.152;11.584;2022-09-09T14:18:47;19.00;99.90
4453;DHT22;2239;48.152;11.584;2022-09-09T14:21:13;19.10;99.90
4453;DHT22;2239;48.152;11.584;2022-09-09T14:23:40;19.00;99.90
4453;DHT22;2239;48.152;11.584;2022-09-09T14:26:06;19.00;99.90
4453;DHT22;2239;48.152;11.584;2022-09-09T14:28:32;19.00;99.90
4453;DHT22;2239;48.152;11.584;2022-09-09T14:31:04;19.10;99.90
4453;DHT22;2239;48.152;11.584;2022-09-09T14:33:30;19.10;99.90
4453;DHT22;2239;48.152;11.584;2022-09-09T14:36:01;19.10;99.90
4453;DHT22;2239;48.152;11.584;2022-09-09T14:38:32;19.10;99.90
4453;DHT22;2239;48.152;11.584;2022-09-09T14:40:59;19.00;99.90
4453;DHT22;2239;48.152;11.584;2022-09-09T14:43:24;18.90;99.90
4453;DHT22;2239;48.152;11.584;2022-09-09T14:45:51;18.80;99.90
4453;DHT22;2239;48.152;11.584;2022-09-09T14:48:17;18.90;99.90
4453;DHT22;2239;48.152;11.584;2022-09-09T14:50:43;18.90;99.90
4453;DHT22;2239;48.152;11.584;2022-09-09T14:53:09;18.80;99.90
4453;DHT22;2239;48.152;11.584;2022-09-09T14:55:35;18.70;99.90
4453;DHT22;2239;48.152;11.584;2022-09-09T14:58:01;18.80;99.90
4453;DHT22;2239;48.152;11.584;2022-09-09T15:00:27;18.90;99.90
4453;DHT22;2239;48.152;11.584;2022-09-09T15:02:53;19.00;99.90
4453;DHT22;2239;48.152;11.584;2022-09-09T15:05:19;19.10;99.90
4453;DHT22;2239;48.152;11.584;2022-09-09T15:07:45;19.10;99.90
4453;DHT22;2239;48.152;11.584;2022-09-09T15:10:11;19.10;99.90
4453;DHT22;2239;48.152;11.584;2022-09-09T15:12:37;19.00;99.90
4453;DHT22;2239;48.152;11.584;2022-09-09T15:15:04;19.00;99.90
4453;DHT22;2239;48.152;11.584;2022-09-09T15:17:30;19.00;99.90
4453;DHT22;2239;48.152;11.584;2022-09-09T15:19:56;19.00;99.90
4453;DHT22;2239;48.152;11.584;2022-09-09T15:22:23;19.00;99.90
4453;DHT22;2239;48.152;11.584;2022-09-09T15:24:50;19.10;99.90
4453;DHT22;2239;48.152;11.584;2022-09-09T15:27:15;19.10;99.90
4453;DHT22;2239;48.152;11.584;2022-09-09T15:29:41;19.00;99.90
4453;DHT22;2239;48.152;11.584;2022-09-09T15:32:07;19.00;99.90
4453;DHT22;2239;48.152;11.584;2022-09-09T15:34:33;19.00;99.90
4453;DHT22;2239;48.152;11.584;2022-09-09T15:36:59;19.00;99.90
4453;DHT22;2239;48.152;11.584;2022-09-09T15:39:25;18.90;99.90
4453;DHT22;2239;48.152;11.584;2022-09-09T15:41:51;19.00;99.90
4453;DHT22;2239;48.152;11.584;2022-09-09T15:44:17;19.00;99.90
4453;DHT22;2239;48.152;11.584;2022-09-09T15:46:51;19.00;99.90
4453;DHT22;2239;48.152;11.584;2022-09-09T15:49:21;19.00;99.90
4453;DHT22;2239;48.152;11.584;2022-09-09T15:51:55;18.80;99.90
4453;DHT22;2239;48.152;11.584;2022-09-09T15:54:23;19.00;99.90
4453;DHT22;2239;48.152;11.584;2022-09-09T15:56:57;19.10;99.90
4453;DHT22;2239;48.152;11.584;2022-09-09T15:59:23;19.30;99.90
4453;DHT22;2239;48.152;11.584;2022-09-09T16:01:49;19.30;99.90
4453;DHT22;2239;48.152;11.584;2022-09-09T16:04:19;19.30;99.90
4453;DHT22;2239;48.152;11.584;2022-09-09T16:07:09;19.10;99.90
4453;DHT22;2239;48.152;11.584;2022-09-09T16:09:35;19.10;99.90
4453;DHT22;2239;48.152;11.584;2022-09-09T16:12:02;18.80;99.90
4453;DHT22;2239;48.152;11.584;2022-09-09T16:14:29;18.70;99.90
4453;DHT22;2239;48.152;11.584;2022-09-09T16:16:59;18.70;99.90
4453;DHT22;2239;48.152;11.584;2022-09-09T16:19:25;18.60;99.90
4453;DHT22;2239;48.152;11.584;2022-09-09T16:21:51;18.40;99.90
4453;DHT22;2239;48.152;11.584;2022-09-09T16:24:18;18.60;99.90
4453;DHT22;2239;48.152;11.584;2022-09-09T16:26:46;18.70;99.90
4453;DHT22;2239;48.152;11.584;2022-09-09T16:29:13;18.80;99.90
4453;DHT22;2239;48.152;11.584;2022-09-09T16:31:40;18.90;99.90
4453;DHT22;2239;48.152;11.584;2022-09-09T16:34:06;19.00;99.90
4453;DHT22;2239;48.152;11.584;2022-09-09T16:36:35;19.00;99.90
4453;DHT22;2239;48.152;11.584;2022-09-09T16:39:03;19.00;99.90
4453;DHT22;2239;48.152;11.584;2022-09-09T16:41:30;19.00;99.90
4453;DHT22;2239;48.152;11.584;2022-09-09T16:43:58;19.10;99.90
4453;DHT22;2239;48.152;11.584;2022-09-09T16:46:25;19.10;99.90
4453;DHT22;2239;48.152;11.584;2022-09-09T16:48:53;19.00;99.90
4453;DHT22;2239;48.152;11.584;2022-09-09T16:51:21;19.00;99.90
4453;DHT22;2239;48.152;11.584;2022-09-09T16:53:48;18.90;99.90
4453;DHT22;2239;48.152;11.584;2022-09-09T16:56:16;18.90;99.90
4453;DHT22;2239;48.152;11.584;2022-09-09T16:58:44;18.80;99.90
4453;DHT22;2239;48.152;11.584;2022-09-09T17:01:14;18.80;99.90
4453;DHT22;2239;48.152;11.584;2022-09-09T17:03:40;18.70;99.90
4453;DHT22;2239;48.152;11.584;2022-09-09T17:06:14;18.60;99.90
4453;DHT22;2239;48.152;11.584;2022-09-09T17:08:40;18.50;99.90
4453;DHT22;2239;48.152;11.584;2022-09-09T17:11:17;18.40;99.90
4453;DHT22;2239;48.152;11.584;2022-09-09T17:13:46;18.30;99.90
4453;DHT22;2239;48.152;11.584;2022-09-09T17:16:14;18.30;99.90
4453;DHT22;2239;48.152;11.584;2022-09-09T17:18:40;18.20;99.90
4453;DHT22;2239;48.152;11.584;2022-09-09T17:21:07;18.30;99.90
4453;DHT22;2239;48.152;11.584;2022-09-09T17:23:36;18.20;99.90
4453;DHT22;2239;48.152;11.584;2022-09-09T17:26:04;18.20;99.90
4453;DHT22;2239;48.152;11.584;2022-09-09T17:28:31;18.10;99.90
4453;DHT22;2239;48.152;11.584;2022-09-09T17:30:58;18.10;99.90
4453;DHT22;2239;48.152;11.584;2022-09-09T17:33:27;18.00;99.90
4453;DHT22;2239;48.152;11.584;2022-09-09T17:35:54;18.00;99.90
4453;DHT22;2239;48.152;11.584;2022-09-09T17:38:20;17.90;99.90
4453;DHT22;2239;48.152;11.584;2022-09-09T17:40:48;17.90;99.90
4453;DHT22;2239;48.152;11.584;2022-09-09T17:43:13;17.80;99.90
4453;DHT22;2239;48.152;11.584;2022-09-09T17:45:39;17.70;99.90
4453;DHT22;2239;48.152;11.584;2022-09-09T17:48:05;17.60;99.90
4453;DHT22;2239;48.152;11.584;2022-09-09T17:50:32;17.60;99.90
4453;DHT22;2239;48.152;11.584;2022-09-09T17:52:59;17.60;99.90
4453;DHT22;2239;48.152;11.584;2022-09-09T17:55:24;17.60;99.90
4453;DHT22;2239;48.152;11.584;2022-09-09T17:57:50;17.50;99.90
4453;DHT22;2239;48.152;11.584;2022-09-09T18:00:16;17.50;99.90
4453;DHT22;2239;48.152;11.584;2022-09-09T18:02:41;17.40;99.90
4453;DHT22;2239;48.152;11.584;2022-09-09T18:05:08;17.40;99.90
4453;DHT22;2239;48.152;11.584;2022-09-09T18:07:35;17.40;99.90
4453;DHT22;2239;48.152;11.584;2022-09-09T18:10:01;17.30;99.90